Time;durP1;ratioP1;P1;durP2;ratioP2;P2;SDS_P1;SDS_P2;PMS_P1;PMS_P2;Temp;Humidity;BMP_temperature;BMP_pressure;BME280_temperature;BME280_humidity;BME280_pressure;Samples;Min_cycle;Max_cycle;Signal;HPM_P1;HPM_P2
2022/11/20 00:00:47;;;;;;;14.07;12.10;;;2.10;1.00;;;;;;5034307;28;20125;-63
2022/11/20 00:03:13;;;;;;;16.48;12.15;;;2.10;1.00;;;;;;5033698;28;20128;-63
2022/11/20 00:05:38;;;;;;;13.73;11.00;;;2.10;1.00;;;;;;5034398;28;20168;-63
2022/11/20 00:08:04;;;;;;;13.90;11.40;;;2.20;1.00;;;;;;5034676;28;20133;-63
2022/11/20 00:10:30;;;;;;;16.98;11.48;;;2.20;1.00;;;;;;5034289;28;20458;-63
2022/11/20 00:12:57;;;;;;;16.40;12.32;;;2.30;1.00;;;;;;5033658;28;20060;-63
2022/11/20 00:15:22;;;;;;;16.02;12.38;;;2.30;1.00;;;;;;5032396;28;20057;-63
2022/11/20 00:17:48;;;;;;;15.20;12.52;;;2.30;1.00;;;;;;5021953;28;20034;-63
2022/11/20 00:20:14;;;;;;;15.98;12.10;;;2.30;1.00;;;;;;5014312;28;20117;-63
2022/11/20 00:22:39;;;;;;;16.48;11.98;;;2.20;1.00;;;;;;5014491;28;20073;-63
2022/11/20 00:25:05;;;;;;;15.98;11.95;;;2.10;1.00;;;;;;5028514;28;20499;-63
2022/11/20 00:27:30;;;;;;;13.73;11.18;;;2.10;1.00;;;;;;5019057;28;20580;-63
2022/11/20 00:29:56;;;;;;;15.18;12.25;;;2.30;1.00;;;;;;5033405;28;20602;-63
2022/11/20 00:32:22;;;;;;;15.82;11.80;;;2.10;1.00;;;;;;5033610;28;20045;-63
2022/11/20 00:34:47;;;;;;;16.85;12.38;;;2.10;1.00;;;;;;5031798;28;20089;-63
2022/11/20 00:37:13;;;;;;;15.65;11.85;;;2.20;1.00;;;;;;5032927;28;20400;-63
2022/11/20 00:39:38;;;;;;;15.65;11.48;;;2.20;1.00;;;;;;5033873;28;20033;-63
2022/11/20 00:42:04;;;;;;;16.42;11.32;;;2.20;1.00;;;;;;5033211;28;20127;-63
2022/11/20 00:44:29;;;;;;;15.77;11.50;;;2.20;1.00;;;;;;5032581;28;20076;-63
2022/11/20 00:46:55;;;;;;;14.48;11.48;;;2.00;1.00;;;;;;5014936;28;20045;-63
2022/11/20 00:49:20;;;;;;;14.55;11.13;;;2.00;1.00;;;;;;5029615;28;20419;-63
2022/11/20 00:51:46;;;;;;;14.45;11.43;;;2.00;1.00;;;;;;5033622;28;20041;-63
2022/11/20 00:54:11;;;;;;;15.98;11.65;;;2.00;1.00;;;;;;5033693;28;20073;-63
2022/11/20 00:56:37;;;;;;;15.88;12.07;;;2.50;1.00;;;;;;5024244;28;20038;-63
2022/11/20 00:59:02;;;;;;;15.02;10.65;;;2.20;1.00;;;;;;5029934;28;20037;-63
2022/11/20 01:01:29;;;;;;;14.65;11.63;;;2.20;1.00;;;;;;5032554;28;20088;-63
2022/11/20 01:03:57;;;;;;;15.15;12.05;;;2.10;1.00;;;;;;5031369;28;20050;-63
2022/11/20 01:06:26;;;;;;;14.90;12.45;;;2.10;1.00;;;;;;5030846;28;20483;-63
2022/11/20 01:08:54;;;;;;;15.90;13.02;;;2.10;1.00;;;;;;5021717;28;20038;-63
2022/11/20 01:11:22;;;;;;;14.52;11.70;;;2.10;1.00;;;;;;5018830;28;20092;-63
2022/11/20 01:13:50;;;;;;;20.05;12.02;;;2.50;1.00;;;;;;5031446;28;20494;-63
2022/11/20 01:16:31;;;;;;;21.58;11.82;;;2.10;1.00;;;;;;5032163;28;20042;-63
2022/11/20 01:18:59;;;;;;;16.88;11.57;;;2.00;1.00;;;;;;5025242;28;20431;-63
2022/11/20 01:21:30;;;;;;;16.17;12.48;;;2.00;1.00;;;;;;5033127;28;20388;-63
2022/11/20 01:23:56;;;;;;;15.93;11.95;;;2.00;1.00;;;;;;5032133;28;20523;-63
2022/11/20 01:26:25;;;;;;;15.77;11.68;;;2.00;1.00;;;;;;5033115;28;20175;-63
2022/11/20 01:28:52;;;;;;;14.70;11.68;;;1.90;1.00;;;;;;5032744;28;20090;-63
2022/11/20 01:31:24;;;;;;;17.15;12.45;;;2.60;1.00;;;;;;5032189;28;20446;-63
2022/11/20 01:33:51;;;;;;;18.83;13.48;;;2.00;1.00;;;;;;5030842;28;20037;-63
2022/11/20 01:36:19;;;;;;;18.45;14.00;;;2.00;1.00;;;;;;5032756;28;20049;-63
2022/11/20 01:38:45;;;;;;;17.63;13.65;;;2.00;1.00;;;;;;5033124;28;20061;-63
2022/11/20 01:43:20;;;;;;;16.52;12.48;;;2.00;1.00;;;;;;5032679;28;20045;-63
2022/11/20 01:43:58;;;;;;;16.00;12.32;;;2.10;1.00;;;;;;5030795;28;20049;-63
2022/11/20 01:46:24;;;;;;;15.00;12.48;;;2.00;1.00;;;;;;5026168;28;20080;-63
2022/11/20 01:49:02;;;;;;;15.65;12.77;;;2.00;1.00;;;;;;5018510;28;20061;-63
2022/11/20 01:51:27;;;;;;;15.23;12.13;;;2.00;1.00;;;;;;5030068;28;20049;-63
2022/11/20 01:53:55;;;;;;;16.60;13.18;;;1.90;1.00;;;;;;5022717;28;20128;-63
2022/11/20 01:56:22;;;;;;;16.38;13.00;;;1.90;1.00;;;;;;5024107;28;20393;-62
2022/11/20 01:58:54;;;;;;;17.42;12.82;;;1.90;1.00;;;;;;5031702;28;20037;-63
2022/11/20 02:01:21;;;;;;;15.50;12.20;;;1.90;1.00;;;;;;5031808;28;20037;-63
2022/11/20 02:03:47;;;;;;;19.95;14.43;;;2.00;1.00;;;;;;5029013;28;20457;-63
2022/11/20 02:06:39;;;;;;;15.90;13.68;;;1.90;1.00;;;;;;5027199;28;20515;-63
2022/11/20 02:09:04;;;;;;;15.75;12.50;;;2.00;1.00;;;;;;5025641;28;20049;-63
2022/11/20 02:11:31;;;;;;;16.60;12.98;;;2.00;1.00;;;;;;5022312;28;20053;-63
2022/11/20 02:13:58;;;;;;;13.98;11.43;;;2.00;1.00;;;;;;5026241;28;20100;-63
2022/11/20 02:16:27;;;;;;;15.52;11.95;;;2.00;1.00;;;;;;5028135;28;20037;-63
2022/11/20 02:18:55;;;;;;;17.95;13.23;;;2.00;1.00;;;;;;5023708;28;20521;-63
2022/11/20 02:21:30;;;;;;;14.65;12.48;;;2.00;1.00;;;;;;5031460;28;20038;-63
2022/11/20 02:24:07;;;;;;;16.35;12.80;;;2.00;1.00;;;;;;5029499;28;20049;-63
2022/11/20 02:27:01;;;;;;;15.48;12.75;;;1.90;1.00;;;;;;5031340;28;20454;-63
2022/11/20 02:29:31;;;;;;;15.98;12.88;;;1.90;1.00;;;;;;5031446;28;20092;-63
2022/11/20 02:31:59;;;;;;;16.35;12.85;;;2.20;1.00;;;;;;5028143;28;20064;-63
2022/11/20 02:34:24;;;;;;;17.00;13.32;;;1.90;1.00;;;;;;5028971;28;20033;-63
2022/11/20 02:36:51;;;;;;;17.92;13.13;;;1.90;1.00;;;;;;5029758;28;20108;-63
2022/11/20 02:39:18;;;;;;;18.73;13.52;;;1.90;1.00;;;;;;5031303;28;20033;-63
2022/11/20 02:41:44;;;;;;;14.65;11.70;;;1.90;1.00;;;;;;5029907;28;20568;-63
2022/11/20 02:44:10;;;;;;;16.77;12.82;;;1.80;1.00;;;;;;5029831;28;20037;-63
2022/11/20 02:46:35;;;;;;;15.60;11.50;;;1.70;1.00;;;;;;5030615;28;20045;-63
2022/11/20 02:49:03;;;;;;;15.02;11.65;;;1.70;1.00;;;;;;5030869;28;20037;-63
2022/11/20 02:51:29;;;;;;;15.60;12.30;;;1.60;1.00;;;;;;5030987;28;20037;-63
2022/11/20 02:53:55;;;;;;;14.88;12.68;;;1.50;1.00;;;;;;5028356;28;20034;-63
2022/11/20 02:56:20;;;;;;;14.15;12.05;;;1.50;1.00;;;;;;5028134;28;20497;-62
2022/11/20 02:58:46;;;;;;;13.68;11.80;;;1.50;1.00;;;;;;5030028;28;20436;-64
2022/11/20 03:01:12;;;;;;;14.30;10.82;;;1.50;1.00;;;;;;5026348;28;20073;-63
2022/11/20 03:03:37;;;;;;;12.43;10.23;;;1.50;1.00;;;;;;5024821;28;20048;-63
2022/11/20 03:06:03;;;;;;;13.18;10.65;;;1.50;1.00;;;;;;5028321;28;20091;-63
2022/11/20 03:08:28;;;;;;;14.75;10.93;;;1.40;1.00;;;;;;5019735;28;20073;-62
2022/11/20 03:10:54;;;;;;;12.00;10.40;;;1.40;1.00;;;;;;5028706;28;20038;-63
2022/11/20 03:13:19;;;;;;;16.42;10.82;;;1.40;1.00;;;;;;5020245;28;20099;-63
2022/11/20 03:15:45;;;;;;;15.20;11.35;;;1.40;1.00;;;;;;5031007;28;20519;-63
2022/11/20 03:18:10;;;;;;;15.80;11.65;;;1.40;1.00;;;;;;5030480;28;20038;-63
2022/11/20 03:20:36;;;;;;;15.07;11.77;;;1.40;1.00;;;;;;5030690;28;20044;-63
2022/11/20 03:23:02;;;;;;;15.30;12.50;;;1.50;1.00;;;;;;5020773;28;20084;-63
2022/11/20 03:25:28;;;;;;;13.13;11.25;;;1.40;1.00;;;;;;5030456;28;20037;-63
2022/11/20 03:27:54;;;;;;;15.40;11.23;;;1.50;1.00;;;;;;5030589;28;20394;-63
2022/11/20 03:30:20;;;;;;;14.50;11.68;;;1.40;1.00;;;;;;5030538;28;20512;-63
2022/11/20 03:32:45;;;;;;;14.48;11.63;;;1.40;1.00;;;;;;5033777;28;20072;-65
2022/11/20 03:35:11;;;;;;;15.95;11.85;;;1.40;1.00;;;;;;5031567;28;20068;-64
2022/11/20 03:37:37;;;;;;;13.82;11.50;;;1.40;1.00;;;;;;5026337;28;20045;-63
2022/11/20 03:40:03;;;;;;;14.38;11.63;;;1.30;1.00;;;;;;5033998;28;20048;-63
2022/11/20 03:42:47;;;;;;;15.00;11.45;;;1.30;1.00;;;;;;5029466;28;20036;-63
2022/11/20 03:45:17;;;;;;;12.35;10.75;;;1.30;1.00;;;;;;5021618;28;20496;-63
2022/11/20 03:47:43;;;;;;;15.52;11.25;;;1.40;1.00;;;;;;5028769;28;20053;-63
2022/11/20 03:50:10;;;;;;;17.77;12.40;;;1.40;1.00;;;;;;5032613;28;20061;-63
2022/11/20 03:52:36;;;;;;;14.10;11.68;;;1.40;1.00;;;;;;5028004;28;20121;-63
2022/11/20 03:55:01;;;;;;;15.68;12.07;;;1.50;1.00;;;;;;5033181;28;20436;-63
2022/11/20 03:57:27;;;;;;;13.77;11.05;;;1.50;3.10;;;;;;5033580;28;20034;-63
2022/11/20 03:59:52;;;;;;;14.00;11.52;;;1.50;5.70;;;;;;5034291;28;20047;-63
2022/11/20 04:02:18;;;;;;;12.55;10.48;;;1.40;3.40;;;;;;5031261;28;20088;-63
2022/11/20 04:04:44;;;;;;;16.15;11.80;;;1.40;1.00;;;;;;5023398;28;20037;-63
2022/11/20 04:07:10;;;;;;;15.65;12.48;;;1.30;1.00;;;;;;5028352;28;20091;-63
2022/11/20 04:09:35;;;;;;;16.88;12.23;;;1.20;1.00;;;;;;5021698;28;20046;-63
2022/11/20 04:12:01;;;;;;;280.42;28.25;;;1.20;1.00;;;;;;5016544;28;20048;-63
2022/11/20 04:14:26;;;;;;;13.80;10.43;;;1.20;1.00;;;;;;5030857;28;20116;-63
2022/11/20 04:16:52;;;;;;;15.43;11.82;;;1.00;1.00;;;;;;5034043;28;20033;-63
2022/11/20 04:19:17;;;;;;;13.93;11.52;;;0.90;1.00;;;;;;5030318;28;20569;-63
2022/11/20 04:21:44;;;;;;;15.00;10.93;;;1.00;1.00;;;;;;5024133;28;20262;-63
2022/11/20 04:24:12;;;;;;;14.45;10.73;;;0.90;1.00;;;;;;5023705;28;20037;-63
2022/11/20 04:26:38;;;;;;;14.95;11.60;;;0.80;1.00;;;;;;5021398;28;20398;-63
2022/11/20 04:29:04;;;;;;;14.80;12.20;;;0.80;1.00;;;;;;5017921;28;20090;-63
2022/11/20 04:31:32;;;;;;;15.85;11.30;;;0.70;1.00;;;;;;5033332;28;20128;-63
2022/11/20 04:34:03;;;;;;;13.38;10.93;;;0.70;1.00;;;;;;5031518;28;20033;-63
2022/11/20 04:36:29;;;;;;;16.08;9.93;;;0.80;1.00;;;;;;5030734;28;20052;-62
2022/11/20 04:38:57;;;;;;;16.38;10.52;;;0.60;1.00;;;;;;5033628;28;20380;-62
2022/11/20 04:41:25;;;;;;;13.25;10.68;;;0.60;1.00;;;;;;5023582;28;20117;-62
2022/11/20 04:43:52;;;;;;;12.63;10.48;;;0.60;1.00;;;;;;5024914;28;20120;-62
2022/11/20 04:46:20;;;;;;;12.63;10.35;;;0.60;1.00;;;;;;5025267;28;20037;-62
2022/11/20 04:48:46;;;;;;;15.00;11.45;;;0.60;2.00;;;;;;5024859;28;20060;-62
2022/11/20 04:51:12;;;;;;;15.98;11.70;;;0.60;1.00;;;;;;5025297;28;20042;-62
2022/11/20 04:53:38;;;;;;;14.02;10.88;;;0.50;1.00;;;;;;5023100;28;20033;-63
2022/11/20 04:56:06;;;;;;;14.05;11.60;;;0.60;6.80;;;;;;5032518;28;20037;-63
2022/11/20 04:58:32;;;;;;;16.00;12.98;;;0.70;11.90;;;;;;5033095;28;20483;-63
2022/11/20 05:01:06;;;;;;;14.43;10.80;;;0.70;19.30;;;;;;5015349;28;20033;-63
2022/11/20 05:03:32;;;;;;;14.40;11.27;;;0.70;24.30;;;;;;5023898;28;20049;-63
2022/11/20 05:06:02;;;;;;;14.80;11.82;;;0.50;11.00;;;;;;5026850;28;20033;-63
2022/11/20 05:08:28;;;;;;;15.23;12.18;;;0.50;13.50;;;;;;5021624;28;20045;-63
2022/11/20 05:10:54;;;;;;;17.98;12.75;;;0.50;7.40;;;;;;5023149;28;20040;-63
2022/11/20 05:13:19;;;;;;;15.52;11.63;;;0.50;11.10;;;;;;5025559;28;20072;-63
2022/11/20 05:15:45;;;;;;;13.95;11.68;;;0.70;90.40;;;;;;5032273;28;20551;-63
2022/11/20 05:18:10;;;;;;;14.43;12.13;;;0.70;76.80;;;;;;5029886;28;20542;-63
2022/11/20 05:20:36;;;;;;;14.32;11.48;;;0.70;72.40;;;;;;5003486;28;20044;-63
2022/11/20 05:23:02;;;;;;;16.45;12.65;;;0.60;76.30;;;;;;5023498;28;20037;-63
2022/11/20 05:25:27;;;;;;;16.60;12.82;;;0.60;81.00;;;;;;5031247;28;20050;-63
2022/11/20 05:27:53;;;;;;;13.88;11.82;;;0.60;91.00;;;;;;5031888;28;20118;-63
2022/11/20 05:30:18;;;;;;;14.70;11.65;;;0.70;94.70;;;;;;5032033;28;20033;-63
2022/11/20 05:32:44;;;;;;;13.40;10.80;;;0.60;93.90;;;;;;5030327;28;20072;-63
2022/11/20 05:35:10;;;;;;;14.68;11.23;;;0.40;84.60;;;;;;5032663;28;20395;-63
2022/11/20 05:37:35;;;;;;;13.48;11.13;;;0.30;64.10;;;;;;5032458;28;20114;-63
2022/11/20 05:40:01;;;;;;;15.35;10.65;;;0.00;49.20;;;;;;5024392;28;20494;-63
2022/11/20 05:42:32;;;;;;;15.25;12.20;;;0.10;57.40;;;;;;5026158;28;20052;-63
2022/11/20 05:45:02;;;;;;;16.48;12.38;;;0.20;59.40;;;;;;5025047;28;20392;-63
2022/11/20 05:47:31;;;;;;;16.10;11.80;;;0.30;73.10;;;;;;5032187;28;20044;-63
2022/11/20 05:49:56;;;;;;;15.50;11.73;;;0.40;90.30;;;;;;5024016;28;20040;-63
2022/11/20 05:52:22;;;;;;;15.80;11.63;;;0.40;91.70;;;;;;5021985;28;20495;-63
2022/11/20 05:54:47;;;;;;;15.93;12.88;;;0.30;87.90;;;;;;5023168;28;20041;-63
2022/11/20 05:57:13;;;;;;;13.95;11.48;;;0.40;94.30;;;;;;5028143;28;20029;-63
2022/11/20 05:59:38;;;;;;;13.63;11.85;;;0.50;99.90;;;;;;5030813;28;20079;-63
2022/11/20 06:02:04;;;;;;;15.23;12.70;;;0.40;99.90;;;;;;5030874;28;20475;-62
2022/11/20 06:04:29;;;;;;;14.80;11.85;;;0.30;98.80;;;;;;5030448;28;20149;-63
2022/11/20 06:06:55;;;;;;;13.93;10.60;;;0.20;94.60;;;;;;5031333;28;20041;-63
2022/11/20 06:09:20;;;;;;;14.63;11.95;;;0.30;92.00;;;;;;5031732;28;20056;-63
2022/11/20 06:11:46;;;;;;;15.20;12.43;;;0.20;92.10;;;;;;5031220;28;20057;-62
2022/11/20 06:14:12;;;;;;;16.42;12.27;;;0.20;93.60;;;;;;5029950;28;20029;-63
2022/11/20 06:16:37;;;;;;;15.07;11.52;;;0.40;99.90;;;;;;5025011;28;20059;-63
2022/11/20 06:19:03;;;;;;;14.00;11.90;;;0.40;99.90;;;;;;5031454;28;20048;-62
2022/11/20 06:21:28;;;;;;;15.60;11.82;;;0.30;99.90;;;;;;5031808;28;20033;-63
2022/11/20 06:23:54;;;;;;;14.32;12.30;;;0.30;99.90;;;;;;5024557;28;20143;-63
2022/11/20 06:26:22;;;;;;;17.83;12.82;;;0.40;99.90;;;;;;5029646;28;20034;-63
2022/11/20 06:28:49;;;;;;;17.10;12.73;;;0.50;99.90;;;;;;5031091;28;20038;-63
2022/11/20 06:31:17;;;;;;;15.07;12.30;;;0.50;99.90;;;;;;5021968;28;20499;-63
2022/11/20 06:33:43;;;;;;;18.75;12.65;;;0.50;99.90;;;;;;5030539;28;20407;-62
2022/11/20 06:36:10;;;;;;;20.05;12.70;;;0.50;99.90;;;;;;5029086;28;20048;-63
2022/11/20 06:38:37;;;;;;;16.65;12.20;;;0.60;99.90;;;;;;5025987;28;20037;-63
2022/11/20 06:41:13;;;;;;;16.20;12.85;;;0.50;99.90;;;;;;5030630;28;20083;-63
2022/11/20 06:43:39;;;;;;;17.67;12.88;;;0.60;99.90;;;;;;5031268;28;20038;-62
2022/11/20 06:46:05;;;;;;;20.33;12.98;;;0.80;99.90;;;;;;5026632;28;20403;-63
2022/11/20 06:48:32;;;;;;;18.10;12.90;;;0.90;99.90;;;;;;5024972;28;20451;-63
2022/11/20 06:50:57;;;;;;;16.40;13.43;;;1.10;99.90;;;;;;5024292;28;20037;-63
2022/11/20 06:53:23;;;;;;;15.45;12.45;;;1.10;99.90;;;;;;5029648;28;20029;-63
2022/11/20 06:55:50;;;;;;;15.88;13.35;;;1.10;99.90;;;;;;5031141;28;20029;-62
2022/11/20 06:58:17;;;;;;;14.95;12.25;;;1.20;99.90;;;;;;5030298;28;20038;-63
2022/11/20 07:00:43;;;;;;;16.52;12.77;;;1.10;99.90;;;;;;5031034;28;20037;-62
2022/11/20 07:03:10;;;;;;;14.88;11.18;;;1.10;99.90;;;;;;5028649;28;20492;-63
2022/11/20 07:05:38;;;;;;;15.70;11.60;;;1.00;99.90;;;;;;5025729;28;20080;-62
2022/11/20 07:08:04;;;;;;;14.20;11.70;;;0.90;99.90;;;;;;5035413;28;20091;-63
2022/11/20 07:10:30;;;;;;;16.40;11.60;;;0.90;99.90;;;;;;5031897;28;20052;-63
2022/11/20 07:12:56;;;;;;;14.32;11.77;;;0.70;99.90;;;;;;5033905;28;20068;-63
2022/11/20 07:15:23;;;;;;;15.85;12.82;;;0.70;99.90;;;;;;5023511;28;20515;-63
2022/11/20 07:17:49;;;;;;;20.45;12.02;;;0.80;99.90;;;;;;5013679;28;20495;-63
2022/11/20 07:20:15;;;;;;;15.25;11.95;;;0.80;99.90;;;;;;5032340;28;20163;-63
2022/11/20 07:22:40;;;;;;;15.43;12.60;;;0.90;99.90;;;;;;5031684;28;20407;-63
2022/11/20 07:25:07;;;;;;;14.85;11.80;;;0.80;99.90;;;;;;5034315;28;20132;-63
2022/11/20 07:27:33;;;;;;;14.65;12.35;;;0.90;99.90;;;;;;5033982;28;20049;-63
2022/11/20 07:29:58;;;;;;;15.07;11.88;;;0.90;99.90;;;;;;5035151;28;20030;-63
2022/11/20 07:32:24;;;;;;;15.38;12.45;;;0.90;99.90;;;;;;5029865;28;20076;-63
2022/11/20 07:34:50;;;;;;;15.13;11.98;;;0.90;99.90;;;;;;5030862;28;20034;-62
2022/11/20 07:37:15;;;;;;;13.15;10.85;;;0.80;99.90;;;;;;5030436;28;20033;-63
2022/11/20 07:39:41;;;;;;;14.27;11.27;;;0.80;95.50;;;;;;5034650;28;20514;-63
2022/11/20 07:42:07;;;;;;;16.25;10.85;;;1.40;91.90;;;;;;5033728;28;20030;-63
2022/11/20 07:44:36;;;;;;;13.23;10.80;;;1.30;80.20;;;;;;5027657;28;20056;-63
2022/11/20 07:47:01;;;;;;;14.13;11.70;;;0.70;67.70;;;;;;5031330;28;20435;-63
2022/11/20 07:49:27;;;;;;;13.30;10.25;;;0.70;61.40;;;;;;5024034;28;20114;-63
2022/11/20 07:51:53;;;;;;;15.43;11.43;;;0.60;59.50;;;;;;5027049;28;20045;-63
2022/11/20 07:54:20;;;;;;;16.30;11.70;;;0.70;57.50;;;;;;5022578;28;20568;-63
2022/11/20 07:56:46;;;;;;;15.13;11.68;;;0.60;56.30;;;;;;5023959;28;20373;-63
2022/11/20 07:59:12;;;;;;;13.05;11.02;;;0.70;58.20;;;;;;5025273;28;20040;-63
2022/11/20 08:01:38;;;;;;;1096.88;73.03;;;0.70;63.00;;;;;;5027027;28;20033;-63
2022/11/20 08:04:04;;;;;;;15.13;10.50;;;0.80;75.50;;;;;;5026552;28;20411;-63
2022/11/20 08:06:30;;;;;;;12.77;11.38;;;0.90;83.10;;;;;;5030507;28;20110;-63
2022/11/20 08:08:55;;;;;;;13.18;11.18;;;1.40;81.40;;;;;;5029094;28;20037;-63
2022/11/20 08:14:11;;;;;;;15.32;10.98;;;1.20;99.90;;;;;;5033728;28;20041;-63
2022/11/20 08:16:37;;;;;;;15.45;11.63;;;1.30;99.90;;;;;;5028630;28;20499;-64
2022/11/20 08:19:03;;;;;;;15.68;12.07;;;1.40;99.90;;;;;;5025715;28;20044;-64
2022/11/20 08:21:30;;;;;;;13.70;11.55;;;1.40;99.90;;;;;;5023963;28;20041;-65
2022/11/20 08:23:57;;;;;;;15.50;11.98;;;1.50;99.90;;;;;;5032444;28;20037;-65
2022/11/20 08:26:23;;;;;;;13.80;11.38;;;1.70;99.90;;;;;;5029941;28;20068;-64
2022/11/20 08:28:49;;;;;;;14.82;11.98;;;1.80;99.90;;;;;;5025523;28;20164;-63
2022/11/20 08:31:15;;;;;;;13.77;11.48;;;2.00;99.90;;;;;;5032231;28;20148;-64
2022/11/20 08:33:40;;;;;;;13.05;10.82;;;2.40;99.90;;;;;;5033454;28;20044;-64
2022/11/20 08:36:06;;;;;;;16.33;11.40;;;2.40;99.90;;;;;;5031562;28;20179;-64
2022/11/20 08:38:32;;;;;;;14.68;11.40;;;2.40;99.90;;;;;;5032090;28;20501;-64
2022/11/20 08:43:43;;;;;;;12.70;11.00;;;3.20;99.90;;;;;;5031628;28;20060;-64
2022/11/20 08:46:09;;;;;;;13.68;11.25;;;2.70;99.90;;;;;;5031500;28;20037;-64
2022/11/20 08:48:34;;;;;;;17.23;12.07;;;2.70;99.90;;;;;;5033095;28;20037;-64
2022/11/20 08:51:00;;;;;;;19.20;12.30;;;2.70;99.90;;;;;;5031331;28;20037;-64
2022/11/20 08:53:26;;;;;;;14.27;12.20;;;2.70;99.90;;;;;;5025063;28;20500;-64
2022/11/20 08:55:52;;;;;;;13.85;11.98;;;2.90;99.90;;;;;;5023529;28;20041;-64
2022/11/20 08:58:17;;;;;;;17.48;12.60;;;2.60;99.90;;;;;;5031243;28;20052;-63
2022/11/20 09:00:43;;;;;;;16.70;12.35;;;2.60;99.90;;;;;;5026799;28;20042;-64
2022/11/20 09:03:08;;;;;;;14.00;11.63;;;2.70;99.90;;;;;;5026776;28;20671;-64
2022/11/20 09:05:34;;;;;;;15.63;12.38;;;2.70;99.90;;;;;;5026678;28;20399;-64
2022/11/20 09:08:00;;;;;;;14.88;12.32;;;2.70;99.90;;;;;;5025310;28;20490;-64
2022/11/20 09:10:28;;;;;;;15.60;12.48;;;2.80;99.90;;;;;;5026482;28;20061;-64
2022/11/20 09:12:55;;;;;;;16.85;12.60;;;3.00;99.90;;;;;;5028688;28;20128;-64
2022/11/20 09:15:21;;;;;;;16.95;13.00;;;3.00;99.90;;;;;;5028803;28;21758;-63
2022/11/20 09:17:52;;;;;;;15.18;13.05;;;3.00;99.90;;;;;;5022955;28;20046;-64
2022/11/20 09:20:19;;;;;;;15.75;12.77;;;3.10;99.90;;;;;;5029590;28;20038;-64
2022/11/20 09:22:44;;;;;;;14.93;12.60;;;3.20;99.90;;;;;;5026574;28;20463;-64
2022/11/20 09:25:10;;;;;;;17.02;12.80;;;3.50;99.90;;;;;;5026466;28;20064;-64
2022/11/20 09:27:35;;;;;;;16.92;12.50;;;3.50;99.90;;;;;;5028951;28;20215;-64
2022/11/20 09:30:02;;;;;;;16.00;12.48;;;3.50;99.90;;;;;;5020745;28;20034;-64
2022/11/20 09:32:27;;;;;;;17.15;12.32;;;3.50;99.90;;;;;;5032081;28;20128;-64
2022/11/20 09:34:53;;;;;;;15.10;12.40;;;3.60;99.90;;;;;;5028412;28;20134;-64
2022/11/20 09:37:18;;;;;;;18.40;12.38;;;3.60;99.90;;;;;;5029839;28;20088;-64
2022/11/20 09:39:44;;;;;;;14.90;12.00;;;3.50;99.90;;;;;;5030203;28;20051;-64
2022/11/20 09:42:17;;;;;;;15.02;12.07;;;3.50;99.90;;;;;;5028141;28;20045;-64
2022/11/20 09:45:01;;;;;;;17.75;12.75;;;3.50;99.90;;;;;;5027334;28;20518;-64
2022/11/20 09:47:49;;;;;;;17.50;13.05;;;3.70;99.90;;;;;;5029176;28;20080;-64
2022/11/20 09:50:17;;;;;;;18.30;13.35;;;3.90;99.90;;;;;;5024336;28;20402;-64
2022/11/20 09:53:10;;;;;;;17.65;13.25;;;3.90;99.90;;;;;;5031302;28;20410;-64
2022/11/20 09:55:37;;;;;;;14.40;12.05;;;3.90;99.90;;;;;;5029900;28;20044;-63
2022/11/20 09:58:06;;;;;;;16.08;12.88;;;3.80;99.90;;;;;;5025760;28;20060;-64
2022/11/20 10:00:31;;;;;;;15.45;12.55;;;3.80;99.90;;;;;;5020172;28;20042;-63
2022/11/20 10:03:05;;;;;;;14.68;12.60;;;3.90;99.90;;;;;;5030252;28;20034;-63
2022/11/20 10:05:43;;;;;;;15.48;12.90;;;3.80;99.90;;;;;;5030049;28;20041;-63
2022/11/20 10:08:24;;;;;;;14.63;12.65;;;3.80;99.90;;;;;;5024175;28;20036;-63
2022/11/20 10:10:52;;;;;;;16.67;13.07;;;3.80;99.90;;;;;;5022205;28;20491;-64
2022/11/20 10:13:39;;;;;;;15.23;12.65;;;3.90;99.90;;;;;;5031274;28;20067;-63
2022/11/20 10:16:23;;;;;;;14.88;12.35;;;3.90;99.90;;;;;;5031765;28;20037;-63
2022/11/20 10:19:05;;;;;;;16.50;12.73;;;3.80;99.90;;;;;;5029792;28;20466;-64
2022/11/20 10:21:53;;;;;;;17.05;13.45;;;3.80;99.90;;;;;;5028082;28;20495;-64
2022/11/20 10:24:41;;;;;;;17.20;12.93;;;3.80;99.90;;;;;;5020361;28;20038;-63
2022/11/20 10:27:39;;;;;;;16.00;13.05;;;3.80;99.90;;;;;;5028549;28;20056;-63
2022/11/20 10:30:13;;;;;;;14.30;12.05;;;3.80;99.90;;;;;;5021691;28;20046;-64
2022/11/20 10:32:48;;;;;;;13.75;11.25;;;3.90;99.90;;;;;;5027271;28;20033;-63
2022/11/20 10:35:13;;;;;;;15.73;12.05;;;4.10;99.90;;;;;;5031125;28;20046;-64
2022/11/20 10:37:43;;;;;;;14.30;10.98;;;4.10;99.90;;;;;;5031514;28;20063;-63
2022/11/20 10:40:53;;;;;;;14.65;10.88;;;4.20;99.90;;;;;;5028535;28;20033;-63
2022/11/20 10:43:49;;;;;;;14.93;11.70;;;4.20;99.90;;;;;;5023851;28;20448;-62
2022/11/20 10:46:22;;;;;;;14.35;11.75;;;4.20;99.90;;;;;;5022832;28;20467;-63
2022/11/20 10:48:48;;;;;;;15.55;11.93;;;4.30;99.90;;;;;;5023838;28;20037;-63
2022/11/20 10:51:24;;;;;;;14.90;11.90;;;4.30;99.90;;;;;;5023315;28;20124;-63
2022/11/20 10:54:14;;;;;;;16.85;12.82;;;4.30;99.90;;;;;;5019416;28;20044;-64
2022/11/20 10:56:53;;;;;;;16.80;12.68;;;4.40;99.90;;;;;;5025976;28;20107;-63
2022/11/20 10:59:37;;;;;;;13.70;11.65;;;4.50;99.90;;;;;;5024241;28;20049;-64
2022/11/20 11:02:15;;;;;;;16.52;11.50;;;4.60;96.00;;;;;;5030439;28;20045;-63
2022/11/20 11:04:50;;;;;;;13.00;10.68;;;4.60;88.30;;;;;;5028410;28;20407;-63
2022/11/20 11:07:29;;;;;;;14.52;11.45;;;4.70;57.90;;;;;;5015412;28;20046;-63
2022/11/20 11:09:56;;;;;;;15.25;10.77;;;4.80;31.00;;;;;;5022300;28;20445;-63
2022/11/20 11:12:25;;;;;;;15.45;11.60;;;5.00;39.40;;;;;;5022653;28;20050;-63
2022/11/20 11:14:55;;;;;;;14.30;11.05;;;5.10;29.70;;;;;;5022749;28;20034;-63
2022/11/20 11:17:27;;;;;;;13.43;10.85;;;5.20;18.30;;;;;;5023947;28;20119;-63
2022/11/20 11:20:18;;;;;;;13.57;9.55;;;5.20;4.80;;;;;;5024725;28;20112;-63
2022/11/20 11:22:49;;;;;;;12.48;9.13;;;5.30;1.00;;;;;;5024195;28;20116;-63
2022/11/20 11:25:22;;;;;;;14.55;9.20;;;5.30;1.00;;;;;;5030816;28;20033;-63
2022/11/20 11:27:49;;;;;;;13.23;10.30;;;5.30;1.00;;;;;;5030385;28;20116;-63
2022/11/20 11:30:17;;;;;;;14.90;10.30;;;5.30;1.00;;;;;;5030547;28;20035;-63
2022/11/20 11:32:43;;;;;;;13.70;9.65;;;5.20;1.00;;;;;;5023243;28;20056;-63
2022/11/20 11:35:21;;;;;;;13.23;10.02;;;5.10;1.00;;;;;;5030217;28;20033;-63
2022/11/20 11:37:48;;;;;;;12.65;8.98;;;5.00;99.90;;;;;;5030659;28;20044;-63
2022/11/20 11:40:15;;;;;;;14.68;9.30;;;5.00;99.90;;;;;;5029916;28;20029;-63
2022/11/20 11:42:49;;;;;;;13.00;8.85;;;5.00;99.90;;;;;;5023268;28;20047;-63
2022/11/20 11:45:17;;;;;;;12.60;9.45;;;5.00;99.90;;;;;;5026955;28;20060;-63
2022/11/20 11:47:42;;;;;;;14.20;9.65;;;5.00;99.90;;;;;;5023365;28;20059;-63
2022/11/20 11:50:11;;;;;;;13.50;9.00;;;5.00;99.90;;;;;;5023626;28;20116;-63
2022/11/20 11:53:02;;;;;;;13.30;8.82;;;5.00;99.90;;;;;;5025180;28;20049;-63
2022/11/20 11:55:42;;;;;;;12.85;9.30;;;5.10;99.90;;;;;;5029001;28;20041;-63
2022/11/20 11:58:33;;;;;;;12.90;9.40;;;5.00;99.90;;;;;;5030093;28;20112;-63
2022/11/20 12:01:11;;;;;;;11.80;9.00;;;5.00;99.90;;;;;;5024674;28;20052;-63
2022/11/20 12:03:41;;;;;;;12.60;8.77;;;5.00;99.90;;;;;;5026915;28;20506;-63
2022/11/20 12:06:15;;;;;;;12.38;7.65;;;5.00;99.90;;;;;;5033423;28;20077;-63
2022/11/20 12:08:58;;;;;;;14.48;8.65;;;5.00;99.90;;;;;;5032642;28;20041;-63
2022/11/20 12:11:37;;;;;;;12.77;9.02;;;5.00;99.90;;;;;;5030267;28;21128;-64
2022/11/20 12:14:19;;;;;;;12.27;9.13;;;5.00;99.90;;;;;;5029015;28;20105;-63
2022/11/20 12:16:46;;;;;;;11.63;8.65;;;5.00;99.90;;;;;;5028344;28;20048;-63
2022/11/20 12:19:13;;;;;;;17.98;8.82;;;5.00;99.90;;;;;;5030916;28;20033;-63
2022/11/20 12:21:41;;;;;;;12.45;8.43;;;4.90;99.90;;;;;;5028764;28;20056;-63
2022/11/20 12:24:40;;;;;;;18.85;8.70;;;4.90;99.90;;;;;;5025550;28;20510;-63
2022/11/20 12:27:41;;;;;;;13.02;9.75;;;4.90;99.90;;;;;;5031932;28;20125;-63
2022/11/20 12:30:15;;;;;;;11.88;9.43;;;4.80;99.90;;;;;;5033387;28;20038;-63
2022/11/20 12:33:15;;;;;;;13.23;9.38;;;4.70;99.90;;;;;;5026869;28;20152;-63
2022/11/20 12:36:10;;;;;;;13.30;9.20;;;4.70;99.90;;;;;;5032931;28;20033;-63
2022/11/20 12:39:08;;;;;;;12.48;8.93;;;4.60;99.90;;;;;;5026995;28;20037;-63
2022/11/20 12:45:09;;;;;;;14.63;9.45;;;4.50;99.90;;;;;;5026507;28;20604;-63
2022/11/20 12:48:02;;;;;;;15.40;9.15;;;4.50;99.90;;;;;;5019654;28;20044;-63
2022/11/20 12:50:46;;;;;;;13.13;9.57;;;4.40;99.90;;;;;;5025466;28;20045;-63
2022/11/20 12:53:42;;;;;;;11.48;7.32;;;4.40;99.90;;;;;;5031921;28;20109;-63
2022/11/20 12:56:26;;;;;;;10.27;6.78;;;4.30;99.90;;;;;;5031658;28;20498;-62
2022/11/20 12:59:07;;;;;;;12.20;7.90;;;4.30;99.90;;;;;;5026494;28;20033;-63
2022/11/20 13:01:57;;;;;;;11.05;7.72;;;4.30;99.90;;;;;;5026922;28;20116;-63
2022/11/20 13:04:48;;;;;;;11.40;8.15;;;4.20;97.90;;;;;;5024771;28;20049;-63